Alden, Wisconsin
Current Conditions -  °F | °C
As of 8:15 AM on Saturday 20 Dec 2014 (Local Time) from KRNH Reporting Station
Haze Haze  
Wind Chill: 21°   Ceiling: 1300
Heat Index: 28°   Visibility: 5mi
Dew Point: 26°   Wind: 7mph
Humidity: 92%   Direction: 160°SSE
Pressure: 30.17"   Gusts: NA
Location:  45.1804°N, 92.551°W
Report Text: KRNH 201415Z AUTO 16006KT 5SM BR OVC013 M02/M03 A3017 RMK AO2 T10201031
Loading
Personal Weather Stations






























Interactive Weather Map New forecast layout! Learn more

10-Day Weather Forecast

Advertisements
Track Severe Weather on mobile